Time;durP1;ratioP1;P1;durP2;ratioP2;P2;SDS_P1;SDS_P2;PMS_P1;PMS_P2;Temp;Humidity;BMP_temperature;BMP_pressure;BME280_temperature;BME280_humidity;BME280_pressure;Samples;Min_cycle;Max_cycle;Signal;HPM_P1;HPM_P2
2022/11/12 00:01:44;;;;;;;1.30;1.30;;;18.40;73.60;;;;;;5046592;28;44464;-74
2022/11/12 00:04:31;;;;;;;1.30;1.30;;;18.40;73.30;;;;;;5047576;28;43415;-73
2022/11/12 00:07:18;;;;;;;1.33;1.33;;;18.40;73.50;;;;;;5045727;28;43618;-74
2022/11/12 00:10:05;;;;;;;1.30;1.30;;;18.40;73.60;;;;;;5041999;28;43519;-73
2022/11/12 00:12:52;;;;;;;1.40;1.40;;;18.40;73.50;;;;;;5042043;28;44918;-75
2022/11/12 00:15:38;;;;;;;1.20;1.20;;;18.30;73.40;;;;;;5043243;28;43464;-74
2022/11/12 00:18:25;;;;;;;1.07;1.07;;;18.30;73.50;;;;;;5041040;28;43622;-74
2022/11/12 00:21:12;;;;;;;1.20;1.20;;;18.30;73.70;;;;;;5043256;28;43376;-74
2022/11/12 00:24:00;;;;;;;1.30;1.30;;;18.20;74.20;;;;;;5044051;28;43640;-74
2022/11/12 00:26:46;;;;;;;1.30;1.30;;;18.20;74.10;;;;;;5043437;28;44407;-73
2022/11/12 00:29:32;;;;;;;1.20;1.20;;;18.20;73.90;;;;;;5047664;28;44498;-73
2022/11/12 00:32:19;;;;;;;1.13;1.13;;;18.10;73.80;;;;;;5043409;28;43451;-73
2022/11/12 00:35:07;;;;;;;1.00;1.00;;;18.20;74.00;;;;;;5038068;28;43463;-73
2022/11/12 00:37:59;;;;;;;1.20;1.20;;;18.10;74.40;;;;;;5045482;28;43691;-73
2022/11/12 00:40:47;;;;;;;1.10;1.10;;;18.20;74.40;;;;;;5043786;28;43681;-73
2022/11/12 00:43:33;;;;;;;1.10;1.10;;;18.30;74.00;;;;;;5043922;28;43410;-73
2022/11/12 00:46:20;;;;;;;1.20;1.20;;;18.40;73.60;;;;;;5044101;28;43562;-73
2022/11/12 00:49:06;;;;;;;1.30;1.30;;;18.40;73.40;;;;;;5042963;28;44056;-74
2022/11/12 00:51:52;;;;;;;1.20;1.20;;;18.40;73.50;;;;;;5041789;28;43492;-75
2022/11/12 00:54:39;;;;;;;1.20;1.20;;;18.30;73.70;;;;;;5040507;28;43440;-75
2022/11/12 00:57:26;;;;;;;1.00;1.00;;;18.30;73.50;;;;;;5046021;28;43619;-74
2022/11/12 01:00:16;;;;;;;1.10;1.10;;;18.30;73.50;;;;;;5042919;28;43436;-75
2022/11/12 01:03:02;;;;;;;1.30;1.30;;;18.30;73.70;;;;;;5047433;28;44415;-74
2022/11/12 01:05:48;;;;;;;1.40;1.40;;;18.20;73.80;;;;;;5046057;28;43416;-74
2022/11/12 01:08:35;;;;;;;1.23;1.23;;;18.20;74.20;;;;;;5043894;28;43388;-76
2022/11/12 01:11:22;;;;;;;1.37;1.37;;;18.20;74.10;;;;;;5043678;28;43367;-76
2022/11/12 01:14:10;;;;;;;1.10;1.10;;;18.20;74.00;;;;;;5043928;28;43610;-75
2022/11/12 01:16:57;;;;;;;1.10;1.10;;;18.10;74.00;;;;;;5045552;28;43500;-74
2022/11/12 01:19:43;;;;;;;1.10;1.10;;;18.10;74.10;;;;;;5043531;28;43553;-73
2022/11/12 01:22:29;;;;;;;1.13;1.13;;;18.10;74.60;;;;;;5039845;28;43443;-74
2022/11/12 01:25:15;;;;;;;1.20;1.20;;;18.20;74.40;;;;;;5043748;28;43553;-74
2022/11/12 01:28:02;;;;;;;1.20;1.20;;;18.30;73.90;;;;;;5042377;28;43484;-73
2022/11/12 01:30:50;;;;;;;1.03;1.03;;;18.40;73.50;;;;;;5043580;28;43363;-73
2022/11/12 01:33:37;;;;;;;1.10;1.10;;;18.40;73.40;;;;;;5043704;28;43467;-73
2022/11/12 01:36:23;;;;;;;1.00;1.00;;;18.30;73.70;;;;;;5039965;28;43938;-74
2022/11/12 01:39:10;;;;;;;1.07;1.07;;;18.30;73.60;;;;;;5043894;28;43395;-75
2022/11/12 01:41:56;;;;;;;1.20;1.20;;;18.30;73.50;;;;;;5042966;28;43459;-74
2022/11/12 01:44:44;;;;;;;1.00;1.00;;;18.30;73.50;;;;;;5044962;28;44128;-76
2022/11/12 01:47:32;;;;;;;1.20;1.20;;;18.20;73.60;;;;;;5043110;28;45075;-73
2022/11/12 01:50:21;;;;;;;1.20;1.20;;;18.20;74.00;;;;;;5038624;28;43739;-75
2022/11/12 01:53:10;;;;;;;0.93;0.93;;;18.20;74.10;;;;;;5040444;28;43380;-75
2022/11/12 01:55:56;;;;;;;1.10;1.10;;;18.20;73.90;;;;;;5042884;28;43440;-75
2022/11/12 01:58:42;;;;;;;0.93;0.93;;;18.20;73.90;;;;;;5043662;28;43971;-74
2022/11/12 02:01:29;;;;;;;1.10;1.10;;;18.10;74.00;;;;;;5043898;28;43500;-74
2022/11/12 02:04:17;;;;;;;0.87;0.87;;;18.10;74.20;;;;;;5045688;28;43490;-74
2022/11/12 02:07:03;;;;;;;1.10;1.10;;;18.10;74.50;;;;;;5045224;28;43524;-73
2022/11/12 02:09:49;;;;;;;1.13;1.13;;;18.20;74.20;;;;;;5041736;28;43921;-74
2022/11/12 02:15:40;;;;;;;1.00;1.00;;;18.40;73.30;;;;;;5040834;28;43462;-74
2022/11/12 02:18:26;;;;;;;1.10;1.10;;;18.40;73.20;;;;;;5046262;28;43475;-72
2022/11/12 02:21:19;;;;;;;1.10;1.10;;;18.40;73.60;;;;;;5042360;28;43835;-74
2022/11/12 02:24:06;;;;;;;1.00;1.00;;;18.40;73.50;;;;;;5044514;28;43452;-74
2022/11/12 02:26:54;;;;;;;1.00;1.00;;;18.30;73.40;;;;;;5043072;28;43515;-73
2022/11/12 02:29:45;;;;;;;0.90;0.90;;;18.30;73.50;;;;;;5042570;28;43467;-73
2022/11/12 02:32:31;;;;;;;0.80;0.80;;;18.20;73.60;;;;;;5039857;28;43519;-73
2022/11/12 02:35:18;;;;;;;1.00;1.00;;;18.20;74.10;;;;;;5041466;28;43505;-75
2022/11/12 02:38:06;;;;;;;0.97;0.97;;;18.20;74.00;;;;;;5042329;28;43802;-73
2022/11/12 02:40:52;;;;;;;0.83;0.83;;;18.20;73.90;;;;;;5041228;28;44017;-74
2022/11/12 02:43:40;;;;;;;0.93;0.93;;;18.20;73.90;;;;;;5038175;28;43651;-73
2022/11/12 02:46:27;;;;;;;1.07;1.07;;;18.10;73.90;;;;;;5037606;28;43933;-73
2022/11/12 02:49:13;;;;;;;1.00;1.00;;;18.10;74.40;;;;;;5041132;28;43855;-73
2022/11/12 02:51:59;;;;;;;1.00;1.00;;;18.20;74.10;;;;;;5037985;28;43517;-75
2022/11/12 02:54:47;;;;;;;0.80;0.80;;;18.40;73.80;;;;;;5039233;28;43741;-75
2022/11/12 02:57:33;;;;;;;0.93;0.93;;;18.50;73.10;;;;;;5043058;28;43399;-74
2022/11/12 03:00:19;;;;;;;0.90;0.90;;;18.60;72.70;;;;;;5040785;28;43370;-73
2022/11/12 03:03:06;;;;;;;1.00;1.00;;;18.60;72.60;;;;;;5044822;28;43448;-73
2022/11/12 03:05:56;;;;;;;1.00;1.00;;;18.50;72.60;;;;;;5037801;28;44053;-75
2022/11/12 03:08:42;;;;;;;0.90;0.90;;;18.40;72.80;;;;;;5041167;28;43556;-74
2022/11/12 03:11:30;;;;;;;1.07;1.07;;;18.30;73.00;;;;;;5041664;28;43435;-74
2022/11/12 03:14:17;;;;;;;0.90;0.90;;;18.30;73.70;;;;;;5041992;28;43384;-73
2022/11/12 03:17:03;;;;;;;0.80;0.80;;;18.30;73.70;;;;;;5043042;28;43943;-74
2022/11/12 03:19:49;;;;;;;1.00;1.00;;;18.20;73.50;;;;;;5040768;28;43504;-73
2022/11/12 03:22:36;;;;;;;0.80;0.80;;;18.20;73.60;;;;;;5039708;28;43405;-74
2022/11/12 03:25:23;;;;;;;0.93;0.93;;;18.20;73.80;;;;;;5044702;28;43420;-74
2022/11/12 03:28:12;;;;;;;0.73;0.73;;;18.10;74.20;;;;;;5042655;28;43549;-73
2022/11/12 03:30:59;;;;;;;0.90;0.90;;;18.10;74.10;;;;;;5044109;28;43484;-73
2022/11/12 03:33:45;;;;;;;0.80;0.80;;;18.10;73.90;;;;;;5045713;28;43447;-74
2022/11/12 03:36:32;;;;;;;1.00;1.00;;;18.10;73.90;;;;;;5043087;28;43451;-74
2022/11/12 03:39:18;;;;;;;0.90;0.90;;;18.10;74.00;;;;;;5046671;28;43672;-75
2022/11/12 03:42:04;;;;;;;0.97;0.97;;;18.10;74.30;;;;;;5043742;28;43490;-75
2022/11/12 03:44:52;;;;;;;0.90;0.90;;;18.10;74.50;;;;;;5038018;28;43364;-73
2022/11/12 03:47:41;;;;;;;0.97;0.97;;;18.20;74.00;;;;;;5048129;28;43507;-74
2022/11/12 03:50:28;;;;;;;1.00;1.00;;;18.40;73.50;;;;;;5039966;28;43646;-74
2022/11/12 03:53:15;;;;;;;0.90;0.90;;;18.50;72.90;;;;;;5046733;28;43496;-73
2022/11/12 03:56:02;;;;;;;0.80;0.80;;;18.60;72.60;;;;;;5041051;28;44096;-75
2022/11/12 03:58:48;;;;;;;0.80;0.80;;;18.50;72.50;;;;;;5047872;28;43455;-75
2022/11/12 04:01:36;;;;;;;0.80;0.80;;;18.40;72.70;;;;;;5046797;28;43489;-74
2022/11/12 04:04:22;;;;;;;0.90;0.90;;;18.40;73.00;;;;;;5040622;28;43344;-74
2022/11/12 04:10:12;;;;;;;1.00;1.00;;;18.20;73.70;;;;;;5044954;28;43898;-75
2022/11/12 04:22:15;;;;;;;0.80;0.80;;;18.10;73.90;;;;;;5045127;28;43455;-74
2022/11/12 04:28:05;;;;;;;0.87;0.87;;;18.10;74.00;;;;;;5043367;28;43530;-73
2022/11/12 04:30:51;;;;;;;0.80;0.80;;;18.10;74.00;;;;;;5044272;28;43770;-75
2022/11/12 04:33:37;;;;;;;0.70;0.70;;;18.10;74.10;;;;;;5045619;28;43788;-74
2022/11/12 04:36:25;;;;;;;0.80;0.80;;;18.00;74.00;;;;;;5043348;28;43625;-73
2022/11/12 04:39:11;;;;;;;0.70;0.70;;;18.00;74.60;;;;;;5048075;28;43505;-74
2022/11/12 04:45:02;;;;;;;0.87;0.87;;;18.30;73.80;;;;;;5047682;28;43551;-74
2022/11/12 04:47:49;;;;;;;0.73;0.73;;;18.30;73.30;;;;;;5039964;28;44200;-72
2022/11/12 04:50:35;;;;;;;0.80;0.80;;;18.30;73.10;;;;;;5039942;28;43996;-74
2022/11/12 04:53:23;;;;;;;0.80;0.80;;;18.30;73.60;;;;;;5046596;28;43932;-74
2022/11/12 04:56:10;;;;;;;0.80;0.80;;;18.30;73.50;;;;;;5041313;28;43381;-74
2022/11/12 04:58:56;;;;;;;0.80;0.80;;;18.30;73.30;;;;;;5044984;28;43944;-74
2022/11/12 05:01:43;;;;;;;0.73;0.73;;;18.20;73.20;;;;;;5043811;28;43389;-73
2022/11/12 05:04:29;;;;;;;0.90;0.90;;;18.20;73.30;;;;;;5039823;28;43499;-74
2022/11/12 05:07:16;;;;;;;0.70;0.70;;;18.20;73.70;;;;;;5044041;28;43478;-74
2022/11/12 05:10:04;;;;;;;0.50;0.50;;;18.20;74.00;;;;;;5039027;28;43485;-73
2022/11/12 05:12:50;;;;;;;0.80;0.80;;;18.20;73.70;;;;;;5045060;28;43533;-74
2022/11/12 05:15:37;;;;;;;0.70;0.70;;;18.20;73.60;;;;;;5045456;28;43396;-74
2022/11/12 05:18:23;;;;;;;0.80;0.80;;;18.10;73.60;;;;;;5043497;28;44026;-74
2022/11/12 05:24:13;;;;;;;1.00;1.00;;;18.10;74.30;;;;;;5041259;28;43456;-74
2022/11/12 05:27:21;;;;;;;0.80;0.80;;;18.20;73.80;;;;;;5042180;28;44009;-74
2022/11/12 05:30:08;;;;;;;0.80;0.80;;;18.40;73.30;;;;;;5040836;28;43443;-74
2022/11/12 05:32:55;;;;;;;0.80;0.80;;;18.50;72.90;;;;;;5043162;28;44313;-73
2022/11/12 05:35:41;;;;;;;0.67;0.67;;;18.40;72.60;;;;;;5043436;28;43942;-74
2022/11/12 05:38:28;;;;;;;0.77;0.77;;;18.40;73.30;;;;;;5043808;28;43464;-73
2022/11/12 05:41:15;;;;;;;0.73;0.73;;;18.40;73.10;;;;;;5043263;28;43739;-75
2022/11/12 05:44:07;;;;;;;0.60;0.60;;;18.40;73.00;;;;;;5044457;28;43854;-74
2022/11/12 05:46:53;;;;;;;0.70;0.70;;;18.30;73.00;;;;;;5044184;28;43781;-74
2022/11/12 05:49:40;;;;;;;0.70;0.70;;;18.30;73.20;;;;;;5039454;28;43447;-74
2022/11/12 05:52:26;;;;;;;0.80;0.80;;;18.20;73.80;;;;;;5043756;28;43428;-75
2022/11/12 05:55:12;;;;;;;0.70;0.70;;;18.20;73.70;;;;;;5042873;28;43822;-73
2022/11/12 05:57:58;;;;;;;0.67;0.67;;;18.20;73.60;;;;;;5043007;28;43528;-73
2022/11/12 06:00:46;;;;;;;0.70;0.70;;;18.20;73.50;;;;;;5042699;28;43465;-73
2022/11/12 06:03:32;;;;;;;0.67;0.67;;;18.10;73.60;;;;;;5039847;28;43461;-74
2022/11/12 06:06:19;;;;;;;0.60;0.60;;;18.10;73.90;;;;;;5044571;28;43586;-74
2022/11/12 06:09:05;;;;;;;0.70;0.70;;;18.10;74.10;;;;;;5042760;28;43384;-73
2022/11/12 06:11:51;;;;;;;0.80;0.80;;;18.10;73.80;;;;;;5042123;28;43970;-74
2022/11/12 06:14:38;;;;;;;0.70;0.70;;;18.10;73.80;;;;;;5039919;28;44092;-74
2022/11/12 06:17:25;;;;;;;0.70;0.70;;;18.10;73.80;;;;;;5041559;28;43563;-74
2022/11/12 06:20:12;;;;;;;0.70;0.70;;;18.10;73.80;;;;;;5040603;28;43507;-74
2022/11/12 06:22:59;;;;;;;0.70;0.70;;;18.00;74.30;;;;;;5043369;28;43392;-74
2022/11/12 06:25:45;;;;;;;0.57;0.57;;;18.10;74.20;;;;;;5036859;28;43495;-74
2022/11/12 06:28:32;;;;;;;1.17;0.67;;;18.30;73.70;;;;;;5041537;28;44618;-73
2022/11/12 06:31:18;;;;;;;0.63;0.63;;;18.40;73.20;;;;;;5041542;28;43432;-74
2022/11/12 06:34:06;;;;;;;0.60;0.60;;;18.50;72.60;;;;;;5039187;28;43488;-74
2022/11/12 06:36:53;;;;;;;0.70;0.70;;;18.50;72.30;;;;;;5044205;28;43455;-72
2022/11/12 06:39:39;;;;;;;0.60;0.60;;;18.50;72.30;;;;;;5043488;28;43489;-73
2022/11/12 06:42:25;;;;;;;0.90;0.90;;;18.40;72.50;;;;;;5044340;28;44153;-72
2022/11/12 06:45:12;;;;;;;1.03;1.03;;;18.30;72.70;;;;;;5041882;28;43443;-74
2022/11/12 06:47:58;;;;;;;2.13;1.90;;;18.30;73.40;;;;;;5042743;28;43417;-74
2022/11/12 06:50:46;;;;;;;2.57;2.00;;;18.20;73.40;;;;;;5040296;28;43680;-73
2022/11/12 06:53:32;;;;;;;2.53;1.77;;;18.20;73.30;;;;;;5039291;28;44418;-73
2022/11/12 06:56:19;;;;;;;2.77;2.00;;;18.20;73.30;;;;;;5039770;28;43462;-74
2022/11/12 06:59:05;;;;;;;4.40;2.70;;;18.20;73.50;;;;;;5044833;28;43543;-74
2022/11/12 07:01:51;;;;;;;4.03;3.13;;;18.10;73.90;;;;;;5045979;28;43626;-75
2022/11/12 07:04:38;;;;;;;4.57;3.00;;;18.20;74.00;;;;;;5041849;28;43392;-74
2022/11/12 07:07:26;;;;;;;7.67;3.33;;;18.30;73.70;;;;;;5042839;28;43477;-74
2022/11/12 07:10:12;;;;;;;4.73;3.03;;;18.30;73.20;;;;;;5047100;28;44023;-75
2022/11/12 07:12:58;;;;;;;5.47;3.20;;;18.30;73.00;;;;;;5045222;28;44242;-74
2022/11/12 07:15:45;;;;;;;6.47;3.20;;;18.20;73.10;;;;;;5045307;28;43451;-74
2022/11/12 07:18:31;;;;;;;5.47;3.40;;;18.20;73.50;;;;;;5043692;28;43448;-74
2022/11/12 07:21:19;;;;;;;5.63;3.40;;;18.20;73.30;;;;;;5051035;28;44191;-74
2022/11/12 07:24:08;;;;;;;6.97;3.83;;;18.20;73.30;;;;;;5046060;28;43666;-73
2022/11/12 07:26:54;;;;;;;4.23;3.43;;;18.20;73.30;;;;;;5045075;28;44053;-73
2022/11/12 07:29:40;;;;;;;9.83;4.10;;;18.10;73.50;;;;;;5045230;28;43390;-73
2022/11/12 07:32:33;;;;;;;7.13;3.83;;;18.10;74.00;;;;;;5044938;28;43450;-74
2022/11/12 07:35:28;;;;;;;5.57;3.60;;;18.10;73.80;;;;;;5043742;28;43537;-73
2022/11/12 07:38:14;;;;;;;5.83;3.33;;;18.10;73.70;;;;;;5048697;28;44127;-75
2022/11/12 07:41:02;;;;;;;6.17;3.40;;;18.10;73.70;;;;;;5048593;28;43477;-73
2022/11/12 07:43:50;;;;;;;6.00;3.50;;;18.10;73.80;;;;;;5046135;28;43465;-75
2022/11/12 07:46:36;;;;;;;7.97;3.83;;;18.00;74.20;;;;;;5046395;28;43488;-74
2022/11/12 07:49:23;;;;;;;6.73;3.93;;;18.10;74.20;;;;;;5045468;28;43502;-74
2022/11/12 07:52:09;;;;;;;7.73;4.03;;;18.30;73.80;;;;;;5041523;28;43404;-74
2022/11/12 07:54:56;;;;;;;7.60;4.20;;;18.40;73.20;;;;;;5045331;28;43396;-74
2022/11/12 07:57:43;;;;;;;7.40;3.70;;;18.50;72.60;;;;;;5043932;28;43553;-75
2022/11/12 08:00:30;;;;;;;4.97;3.93;;;18.50;72.30;;;;;;5039270;28;43575;-73
2022/11/12 08:03:16;;;;;;;5.47;3.23;;;18.50;72.40;;;;;;5041607;28;43993;-75
2022/11/12 08:06:02;;;;;;;4.97;3.90;;;18.40;72.50;;;;;;5046966;28;43943;-75
2022/11/12 08:08:51;;;;;;;4.93;3.67;;;18.30;72.80;;;;;;5039193;28;43616;-73
2022/11/12 08:11:38;;;;;;;6.23;3.87;;;18.20;73.20;;;;;;5041915;28;43752;-74
2022/11/12 08:14:25;;;;;;;5.23;3.43;;;18.20;73.40;;;;;;5045421;28;45015;-73
2022/11/12 08:17:12;;;;;;;3.97;3.30;;;18.20;73.30;;;;;;5041993;28;43447;-74
2022/11/12 08:19:58;;;;;;;4.63;3.60;;;18.20;73.40;;;;;;5039407;28;44640;-74
2022/11/12 08:22:44;;;;;;;4.57;3.70;;;18.10;73.40;;;;;;5045306;28;43444;-73
2022/11/12 08:25:35;;;;;;;4.17;3.50;;;18.10;73.70;;;;;;5046470;28;43473;-75
2022/11/12 08:28:21;;;;;;;5.13;3.50;;;18.10;74.10;;;;;;5044102;28;43356;-74
2022/11/12 08:31:10;;;;;;;6.77;3.70;;;18.20;73.60;;;;;;5041201;28;44479;-72
2022/11/12 08:33:56;;;;;;;5.00;3.23;;;18.30;73.40;;;;;;5044956;28;43388;-74
2022/11/12 08:36:43;;;;;;;3.57;3.27;;;18.30;73.20;;;;;;5042851;28;43474;-75
2022/11/12 08:39:29;;;;;;;3.40;2.93;;;18.30;73.20;;;;;;5046435;28;43526;-75
2022/11/12 08:42:15;;;;;;;4.30;3.50;;;18.20;73.60;;;;;;5043747;28;43492;-74
2022/11/12 08:45:02;;;;;;;5.17;3.70;;;18.20;73.50;;;;;;5040282;28;44241;-73
2022/11/12 08:47:49;;;;;;;3.90;3.30;;;18.20;73.30;;;;;;5042115;28;43438;-73
2022/11/12 08:50:36;;;;;;;4.27;3.33;;;18.20;73.30;;;;;;5044108;28;43417;-75
2022/11/12 08:53:23;;;;;;;3.83;3.17;;;18.10;73.40;;;;;;5042186;28;43564;-75
2022/11/12 08:56:09;;;;;;;4.50;3.27;;;18.10;73.90;;;;;;5042169;28;43423;-74
2022/11/12 08:58:55;;;;;;;3.20;3.00;;;18.10;73.80;;;;;;5041465;28;43843;-75
2022/11/12 09:01:42;;;;;;;2.93;2.73;;;18.10;73.60;;;;;;5043176;28;43468;-75
2022/11/12 09:04:30;;;;;;;3.70;3.30;;;18.10;73.60;;;;;;5039698;28;43493;-73
2022/11/12 09:07:16;;;;;;;3.73;3.30;;;18.10;73.60;;;;;;5042183;28;43499;-74
2022/11/12 09:10:22;;;;;;;3.97;3.27;;;18.10;73.90;;;;;;5042446;28;43888;-74
2022/11/12 09:13:09;;;;;;;3.97;3.23;;;18.10;74.10;;;;;;5049888;28;43424;-72
2022/11/12 09:16:00;;;;;;;3.60;3.30;;;18.20;73.60;;;;;;5037862;28;44004;-74
2022/11/12 09:18:47;;;;;;;3.77;3.47;;;18.30;73.10;;;;;;5041338;28;43508;-74
2022/11/12 09:21:35;;;;;;;5.43;3.40;;;18.40;72.90;;;;;;5041396;28;44113;-73
2022/11/12 09:24:21;;;;;;;3.47;3.13;;;18.30;72.80;;;;;;5048352;28;43503;-74
2022/11/12 09:27:07;;;;;;;4.07;3.40;;;18.30;73.30;;;;;;5043384;28;43692;-74
2022/11/12 09:29:54;;;;;;;3.80;3.30;;;18.30;73.10;;;;;;5042782;28;43416;-73
2022/11/12 09:32:40;;;;;;;3.83;3.03;;;18.30;73.10;;;;;;5044135;28;43960;-73
2022/11/12 09:35:27;;;;;;;3.17;2.97;;;18.20;73.20;;;;;;5043086;28;43552;-74
2022/11/12 09:38:14;;;;;;;3.97;3.30;;;18.10;73.20;;;;;;5039755;28;43492;-73
2022/11/12 09:41:14;;;;;;;3.50;3.20;;;18.10;73.80;;;;;;5042170;28;43531;-74
2022/11/12 09:44:02;;;;;;;3.77;3.30;;;18.10;73.70;;;;;;5037725;28;44064;-73
2022/11/12 09:46:50;;;;;;;3.77;3.47;;;18.10;73.60;;;;;;5037793;28;43969;-72
2022/11/12 09:49:39;;;;;;;3.97;3.20;;;18.10;73.60;;;;;;5039073;28;43672;-75
2022/11/12 09:52:26;;;;;;;4.30;3.80;;;18.10;73.70;;;;;;5039286;28;43559;-74
2022/11/12 09:55:17;;;;;;;3.93;3.47;;;18.00;74.10;;;;;;5039955;28;43469;-75
2022/11/12 09:58:09;;;;;;;3.33;3.07;;;18.10;74.10;;;;;;5047470;28;43476;-74
2022/11/12 10:00:57;;;;;;;3.80;3.13;;;18.20;73.60;;;;;;5043467;28;43688;-73
2022/11/12 10:03:47;;;;;;;4.60;3.53;;;18.30;73.10;;;;;;5047087;28;43936;-73
2022/11/12 10:06:35;;;;;;;3.50;3.20;;;18.30;73.00;;;;;;5043123;28;43776;-74
2022/11/12 10:09:24;;;;;;;3.53;3.20;;;18.20;73.20;;;;;;5045277;28;44098;-74
2022/11/12 10:12:32;;;;;;;3.53;3.20;;;18.20;73.30;;;;;;5039202;28;44484;-74
2022/11/12 10:19:01;;;;;;;3.30;3.00;;;18.20;73.20;;;;;;5040051;28;43506;-73
2022/11/12 10:21:51;;;;;;;3.73;3.43;;;18.10;73.40;;;;;;5039816;28;43569;-73
2022/11/12 10:24:38;;;;;;;3.33;3.03;;;18.10;73.80;;;;;;5047481;28;43529;-73
2022/11/12 10:27:28;;;;;;;3.37;3.03;;;18.10;73.90;;;;;;5044839;28;43806;-73
2022/11/12 10:30:16;;;;;;;3.07;2.87;;;18.20;73.50;;;;;;5045138;28;43440;-73
2022/11/12 10:33:02;;;;;;;3.27;2.97;;;18.20;73.20;;;;;;5046426;28;43403;-74
2022/11/12 10:35:49;;;;;;;2.73;2.60;;;18.20;73.10;;;;;;5040289;28;44016;-74
2022/11/12 10:38:35;;;;;;;3.60;3.10;;;18.20;73.20;;;;;;5044902;28;43515;-73
2022/11/12 10:41:24;;;;;;;3.40;3.10;;;18.20;73.70;;;;;;5042811;28;43387;-73
2022/11/12 10:44:13;;;;;;;3.17;2.87;;;18.10;73.40;;;;;;5044928;28;43831;-74
2022/11/12 10:47:23;;;;;;;3.00;2.70;;;18.10;73.30;;;;;;5044368;28;43625;-73
2022/11/12 10:50:15;;;;;;;2.73;2.53;;;18.10;73.40;;;;;;5041617;28;43428;-75
2022/11/12 10:53:03;;;;;;;2.80;2.60;;;18.10;73.50;;;;;;5041206;28;43874;-74
2022/11/12 10:55:55;;;;;;;2.90;2.80;;;18.10;74.00;;;;;;5042888;28;43365;-73
2022/11/12 10:58:42;;;;;;;2.73;2.63;;;18.20;73.80;;;;;;5038423;28;43696;-75
2022/11/12 11:01:29;;;;;;;2.77;2.57;;;18.30;73.30;;;;;;5042743;28;43476;-74
2022/11/12 11:04:32;;;;;;;2.67;2.47;;;18.30;72.80;;;;;;5040631;28;43387;-73
2022/11/12 11:07:21;;;;;;;3.00;2.70;;;18.30;72.70;;;;;;5043484;28;43408;-73
2022/11/12 11:10:22;;;;;;;2.83;2.63;;;18.30;73.20;;;;;;5040511;28;43519;-75
2022/11/12 11:13:19;;;;;;;2.40;2.30;;;18.30;73.00;;;;;;5042924;28;43876;-75
2022/11/12 11:16:06;;;;;;;2.67;2.50;;;18.30;72.80;;;;;;5041366;28;43921;-73
2022/11/12 11:18:55;;;;;;;2.50;2.40;;;18.20;72.90;;;;;;5039710;28;43511;-74
2022/11/12 11:21:55;;;;;;;2.50;2.40;;;18.10;73.10;;;;;;5038243;28;43759;-75
2022/11/12 11:24:45;;;;;;;2.40;2.30;;;18.10;73.70;;;;;;5042078;28;43444;-74
2022/11/12 11:27:34;;;;;;;2.30;2.20;;;18.10;73.40;;;;;;5041399;28;43419;-74
2022/11/12 11:30:21;;;;;;;2.50;2.40;;;18.10;73.30;;;;;;5041816;28;43449;-75
2022/11/12 11:33:28;;;;;;;2.90;2.70;;;18.10;73.40;;;;;;5037294;28;43919;-74
2022/11/12 11:36:20;;;;;;;2.63;2.53;;;18.00;73.30;;;;;;5040754;28;43555;-73
2022/11/12 11:39:12;;;;;;;2.17;2.10;;;18.00;74.00;;;;;;5041403;28;43605;-75
2022/11/12 11:42:06;;;;;;;2.10;2.00;;;18.00;73.70;;;;;;5040387;28;43504;-74
2022/11/12 11:44:58;;;;;;;2.77;2.63;;;18.00;73.40;;;;;;5040085;28;44082;-75
2022/11/12 11:47:47;;;;;;;2.40;2.30;;;18.00;73.50;;;;;;5043362;28;44800;-73
2022/11/12 11:50:52;;;;;;;2.40;2.30;;;18.00;73.50;;;;;;5040998;28;44028;-74
2022/11/12 11:53:43;;;;;;;2.40;2.20;;;18.00;74.10;;;;;;5039115;28;43396;-74
2022/11/12 11:56:32;;;;;;;2.60;2.40;;;18.00;74.00;;;;;;5041564;28;43503;-73
2022/11/12 11:59:27;;;;;;;2.17;2.07;;;18.20;73.60;;;;;;5043465;28;43415;-75
2022/11/12 12:02:27;;;;;;;2.43;2.33;;;18.40;73.10;;;;;;5044758;28;43478;-74
2022/11/12 12:05:22;;;;;;;2.30;2.20;;;18.50;72.50;;;;;;5039169;28;44890;-73
2022/11/12 12:08:09;;;;;;;1.97;1.97;;;18.50;72.10;;;;;;5044493;28;43778;-75
2022/11/12 12:10:59;;;;;;;2.13;2.10;;;18.50;72.10;;;;;;5046198;28;43584;-74
2022/11/12 12:14:02;;;;;;;2.33;2.23;;;18.40;72.20;;;;;;5041010;28;43773;-73
2022/11/12 12:16:54;;;;;;;1.80;1.80;;;18.30;72.60;;;;;;5047438;28;43413;-72
2022/11/12 12:19:53;;;;;;;1.90;1.90;;;18.20;73.20;;;;;;5044222;28;43931;-75
2022/11/12 12:22:42;;;;;;;2.37;2.27;;;18.20;73.20;;;;;;5045218;28;43518;-74
2022/11/12 12:25:30;;;;;;;2.30;2.10;;;18.10;73.10;;;;;;5045431;28;43411;-73
2022/11/12 12:28:29;;;;;;;2.20;2.10;;;18.10;73.20;;;;;;5001030;28;43342;-74
2022/11/12 12:31:17;;;;;;;2.00;1.90;;;18.10;74.00;;;;;;5003146;28;43548;-74
2022/11/12 12:34:05;;;;;;;1.87;1.87;;;18.00;73.70;;;;;;5004476;28;43459;-73
2022/11/12 12:36:54;;;;;;;2.07;1.97;;;18.10;74.00;;;;;;5002515;28;43597;-74
2022/11/12 12:39:44;;;;;;;2.23;2.13;;;18.20;73.50;;;;;;5003319;28;43471;-73
2022/11/12 12:42:35;;;;;;;2.10;2.00;;;18.20;73.20;;;;;;5001778;28;43565;-74
2022/11/12 12:45:30;;;;;;;2.30;2.20;;;18.20;73.00;;;;;;4998926;28;43396;-76
2022/11/12 12:48:22;;;;;;;1.87;1.87;;;18.20;73.20;;;;;;5001250;28;44041;-74
2022/11/12 12:51:09;;;;;;;2.33;2.10;;;18.20;73.40;;;;;;5005175;28;43452;-75
2022/11/12 12:53:56;;;;;;;1.70;1.70;;;18.20;73.00;;;;;;5002772;28;43490;-74
2022/11/12 12:56:44;;;;;;;2.17;2.07;;;18.10;73.00;;;;;;5000654;28;43340;-75
2022/11/12 12:59:31;;;;;;;2.00;1.90;;;18.10;73.00;;;;;;5001434;28;43463;-74
2022/11/12 13:02:21;;;;;;;1.80;1.77;;;18.10;73.20;;;;;;5001168;28;43440;-74
2022/11/12 13:05:24;;;;;;;2.17;2.07;;;18.10;73.80;;;;;;5002255;28;43727;-74
2022/11/12 13:08:11;;;;;;;1.93;1.83;;;18.10;73.50;;;;;;5000908;28;43462;-73
2022/11/12 13:10:58;;;;;;;1.70;1.70;;;18.20;73.20;;;;;;5002911;28;43499;-74
2022/11/12 13:13:44;;;;;;;1.83;1.73;;;18.20;73.00;;;;;;5002305;28;43532;-74
2022/11/12 13:16:56;;;;;;;1.77;1.67;;;18.20;73.10;;;;;;5002257;28;43488;-75
2022/11/12 13:19:46;;;;;;;1.60;1.60;;;18.10;73.50;;;;;;5002638;28;44232;-74
2022/11/12 13:22:34;;;;;;;1.90;1.80;;;18.10;73.30;;;;;;5001307;28;43383;-74
2022/11/12 13:25:25;;;;;;;1.90;1.90;;;18.10;73.30;;;;;;5000818;28;43459;-73
2022/11/12 13:28:13;;;;;;;1.73;1.73;;;18.10;73.40;;;;;;5038104;28;44605;-74
2022/11/12 13:31:00;;;;;;;1.60;1.60;;;18.00;73.40;;;;;;5040076;28;43459;-73
2022/11/12 13:33:47;;;;;;;1.90;1.90;;;18.00;73.90;;;;;;5041792;28;44123;-75
2022/11/12 13:36:34;;;;;;;1.93;1.83;;;18.10;73.80;;;;;;5040538;28;46081;-74
2022/11/12 13:39:21;;;;;;;1.90;1.73;;;18.20;73.40;;;;;;5041412;28;44041;-74
2022/11/12 13:45:15;;;;;;;1.60;1.60;;;18.20;72.90;;;;;;5043774;28;43480;-74
2022/11/12 13:48:05;;;;;;;1.87;1.87;;;18.20;73.40;;;;;;5040966;28;45442;-74
2022/11/12 13:50:53;;;;;;;1.80;1.80;;;18.20;73.20;;;;;;5040347;28;43531;-73
2022/11/12 13:53:40;;;;;;;1.80;1.80;;;18.20;73.20;;;;;;5036988;28;43436;-73
2022/11/12 13:56:28;;;;;;;1.80;1.80;;;18.10;73.20;;;;;;5039086;28;43420;-73
2022/11/12 13:59:16;;;;;;;1.77;1.77;;;18.10;73.30;;;;;;5043986;28;43811;-74
2022/11/12 14:02:04;;;;;;;1.70;1.70;;;18.00;73.70;;;;;;5041737;28;45057;-74
2022/11/12 14:04:50;;;;;;;2.07;2.00;;;18.10;73.80;;;;;;5042035;28;43535;-73
2022/11/12 14:07:40;;;;;;;1.60;1.60;;;18.20;73.50;;;;;;5038163;28;43456;-73
2022/11/12 14:10:34;;;;;;;1.73;1.73;;;18.20;73.00;;;;;;5040735;28;44049;-73
2022/11/12 14:13:31;;;;;;;1.50;1.50;;;18.20;72.90;;;;;;5041417;28;43649;-75
2022/11/12 14:16:32;;;;;;;1.70;1.70;;;18.20;73.20;;;;;;5040043;28;44212;-74
2022/11/12 14:19:57;;;;;;;1.50;1.50;;;18.10;73.40;;;;;;5036307;28;43538;-73
2022/11/12 14:22:44;;;;;;;1.70;1.63;;;18.10;73.20;;;;;;5022688;28;43490;-73
2022/11/12 14:25:32;;;;;;;1.50;1.50;;;18.10;73.30;;;;;;5039601;28;43504;-76
2022/11/12 14:28:25;;;;;;;1.70;1.70;;;18.10;73.40;;;;;;5041315;28;43510;-74
2022/11/12 14:31:12;;;;;;;1.50;1.50;;;18.00;73.70;;;;;;5042020;28;44069;-75
2022/11/12 14:34:20;;;;;;;1.73;1.73;;;18.00;73.80;;;;;;5038912;28;43389;-75
2022/11/12 14:37:07;;;;;;;1.57;1.57;;;18.00;73.70;;;;;;5039624;28;43715;-74
2022/11/12 14:39:53;;;;;;;2.03;1.93;;;18.00;73.60;;;;;;5034748;28;44129;-73
2022/11/12 14:42:41;;;;;;;1.80;1.80;;;17.90;73.50;;;;;;5038766;28;43749;-74
2022/11/12 14:45:27;;;;;;;1.93;1.83;;;17.90;73.80;;;;;;5038727;28;43409;-74
2022/11/12 14:48:20;;;;;;;1.77;1.77;;;18.00;74.20;;;;;;5039631;28;43613;-74
2022/11/12 14:51:09;;;;;;;1.70;1.70;;;18.10;73.80;;;;;;5038758;28;43543;-72
2022/11/12 14:53:57;;;;;;;2.00;2.00;;;18.20;73.20;;;;;;5041135;28;43440;-74
2022/11/12 14:56:46;;;;;;;2.10;2.00;;;18.30;73.00;;;;;;5041301;28;43443;-74
2022/11/12 14:59:34;;;;;;;1.93;1.93;;;18.20;72.90;;;;;;5039679;28;43491;-74
2022/11/12 15:02:22;;;;;;;1.90;1.80;;;18.20;73.20;;;;;;5037223;28;43479;-75
2022/11/12 15:05:29;;;;;;;1.93;1.83;;;18.20;73.00;;;;;;5041445;28;43377;-74
2022/11/12 15:08:30;;;;;;;2.93;1.80;;;18.20;72.90;;;;;;5044542;28;43474;-75
2022/11/12 15:11:24;;;;;;;4.83;1.80;;;18.10;72.60;;;;;;5037372;28;43610;-74